Time;durP1;ratioP1;P1;durP2;ratioP2;P2;SDS_P1;SDS_P2;PMS_P1;PMS_P2;Temp;Humidity;BMP_temperature;BMP_pressure;BME280_temperature;BME280_humidity;BME280_pressure;Samples;Min_cycle;Max_cycle;Signal;HPM_P1;HPM_P2
2023/03/02 00:01:24;;;;;;;20.43;14.43;;;;;;;-143.84;80.82;45161.41;5092315;28;20440;-73
2023/03/02 00:03:53;;;;;;;23.73;16.57;;;;;;;-143.84;81.06;45127.13;5092274;28;20479;-73
2023/03/02 00:06:20;;;;;;;25.97;16.43;;;;;;;-143.84;80.62;45151.91;5092189;28;20444;-72
2023/03/02 00:08:47;;;;;;;28.30;16.00;;;;;;;-143.84;80.14;45169.03;5092317;28;20443;-73
2023/03/02 00:11:15;;;;;;;19.40;14.80;;;;;;;-143.84;80.02;45161.41;5091967;28;20805;-73
2023/03/02 00:13:44;;;;;;;20.30;14.77;;;;;;;-143.84;80.15;45144.28;5091863;28;20868;-73
2023/03/02 00:16:11;;;;;;;24.97;15.37;;;;;;;-143.84;79.92;45146.19;5091799;28;20531;-73
2023/03/02 00:18:38;;;;;;;24.50;14.60;;;;;;;-143.84;80.33;45165.22;5091464;28;20486;-73
2023/03/02 00:21:09;;;;;;;23.27;15.00;;;;;;;-143.84;80.10;45142.38;5091650;28;20439;-72
2023/03/02 00:23:36;;;;;;;16.73;12.80;;;;;;;-143.84;80.35;45159.50;5091559;28;20497;-73
2023/03/02 00:26:03;;;;;;;21.17;15.37;;;;;;;-143.84;80.02;45163.31;5091761;28;20440;-73
2023/03/02 00:28:30;;;;;;;22.50;15.47;;;;;;;-143.84;79.85;45155.69;5090140;28;20500;-73
2023/03/02 00:30:58;;;;;;;20.90;15.23;;;;;;;-143.84;80.02;45136.66;5090305;28;20953;-73
2023/03/02 00:33:25;;;;;;;21.73;14.93;;;;;;;-143.84;80.05;45151.91;5091348;28;20899;-73
2023/03/02 00:35:52;;;;;;;21.57;15.00;;;;;;;-143.84;79.61;45146.19;5091277;28;20436;-73
2023/03/02 00:38:20;;;;;;;20.00;14.10;;;;;;;-143.84;79.94;45155.69;5091176;28;20600;-73
2023/03/02 00:40:49;;;;;;;27.20;13.80;;;;;;;-143.84;80.12;45155.69;5091141;28;21002;-73
2023/03/02 00:43:16;;;;;;;20.63;14.83;;;;;;;-143.84;80.20;45165.22;5090864;28;20554;-73
2023/03/02 00:45:43;;;;;;;28.23;14.33;;;;;;;-143.84;80.62;45155.69;5090833;28;20476;-73
2023/03/02 00:48:10;;;;;;;24.00;14.60;;;;;;;-143.84;80.30;45157.59;5091079;28;20506;-73
2023/03/02 00:50:39;;;;;;;19.93;14.67;;;;;;;-143.84;80.29;45129.03;5091476;28;20432;-73
2023/03/02 00:53:08;;;;;;;22.83;14.80;;;;;;;-143.84;80.27;45144.28;5091570;28;20439;-73
2023/03/02 00:55:37;;;;;;;20.50;13.57;;;;;;;-143.84;80.61;45148.09;5091462;28;20440;-73
2023/03/02 00:58:05;;;;;;;21.73;14.13;;;;;;;-143.84;80.43;45151.91;5091295;28;20482;-73
2023/03/02 01:00:34;;;;;;;20.03;14.80;;;;;;;-143.84;80.48;45167.13;5091556;28;20455;-73
2023/03/02 01:03:01;;;;;;;19.40;13.67;;;;;;;-143.84;80.27;45144.28;5091251;28;20447;-73
2023/03/02 01:05:28;;;;;;;22.50;14.07;;;;;;;-143.84;80.57;45159.50;5090287;28;20484;-73
2023/03/02 01:07:56;;;;;;;16.60;12.70;;;;;;;-143.84;80.22;45169.03;5090677;28;20448;-73
2023/03/02 01:10:23;;;;;;;18.80;12.87;;;;;;;-143.84;80.02;45172.84;5091267;28;20439;-73
2023/03/02 01:12:51;;;;;;;17.67;13.60;;;;;;;-143.84;80.02;45169.03;5090807;28;20444;-73
2023/03/02 01:15:18;;;;;;;20.47;13.30;;;;;;;-143.84;79.92;45136.66;5091084;28;20444;-72
2023/03/02 01:17:46;;;;;;;20.13;14.17;;;;;;;-143.84;80.08;45148.09;5090769;28;20840;-73
2023/03/02 01:20:13;;;;;;;19.40;13.83;;;;;;;-143.84;80.18;45169.03;5090891;28;20432;-73
2023/03/02 01:22:41;;;;;;;19.17;13.03;;;;;;;-143.84;80.01;45188.06;5090586;28;20448;-73
2023/03/02 01:25:08;;;;;;;18.83;13.80;;;;;;;-143.84;80.27;45148.09;5090679;28;20478;-73
2023/03/02 01:27:35;;;;;;;20.00;13.30;;;;;;;-143.84;79.91;45136.66;5090048;28;21022;-73
2023/03/02 01:30:05;;;;;;;21.97;14.80;;;;;;;-143.84;80.23;45163.31;5090303;28;20439;-73
2023/03/02 01:32:32;;;;;;;21.33;14.20;;;;;;;-143.84;80.09;45138.56;5090651;28;20502;-73
2023/03/02 01:34:59;;;;;;;21.60;12.90;;;;;;;-143.84;80.07;45125.22;5090660;28;20452;-73
2023/03/02 01:37:26;;;;;;;21.03;14.10;;;;;;;-143.84;80.21;45129.03;5090207;28;20451;-73
2023/03/02 01:39:54;;;;;;;22.47;14.17;;;;;;;-143.84;79.81;45186.16;5090048;28;20447;-73
2023/03/02 01:42:21;;;;;;;21.53;13.97;;;;;;;-143.84;80.19;45140.47;5090455;28;20432;-73
2023/03/02 01:44:52;;;;;;;20.07;13.57;;;;;;;-143.84;80.38;45169.03;5090337;28;20490;-73
2023/03/02 01:47:25;;;;;;;19.87;12.60;;;;;;;-143.84;80.30;45159.50;5090197;28;20998;-73
2023/03/02 01:49:57;;;;;;;17.80;13.20;;;;;;;-143.84;80.36;45151.91;5089834;28;20797;-73
2023/03/02 01:52:25;;;;;;;18.47;12.60;;;;;;;-143.84;80.53;45170.94;5089684;28;20440;-73
2023/03/02 01:54:55;;;;;;;17.70;12.37;;;;;;;-143.84;80.70;45159.50;5090028;28;20493;-73
2023/03/02 01:57:27;;;;;;;18.83;13.07;;;;;;;-143.84;80.51;45176.66;5089807;28;20439;-73
2023/03/02 01:59:59;;;;;;;18.63;13.10;;;;;;;-143.84;80.65;45136.66;5089926;28;20509;-73
2023/03/02 02:02:28;;;;;;;16.80;12.80;;;;;;;-143.84;80.69;45153.81;5090192;28;20976;-72
2023/03/02 02:04:57;;;;;;;20.00;13.67;;;;;;;-143.84;80.66;45138.56;5090004;28;20848;-73
2023/03/02 02:07:24;;;;;;;19.13;12.63;;;;;;;-143.84;80.33;45123.34;5089874;28;20443;-73
2023/03/02 02:09:53;;;;;;;19.20;12.60;;;;;;;-143.84;80.32;45151.91;5089897;28;20494;-73
2023/03/02 02:12:22;;;;;;;15.67;11.67;;;;;;;-143.84;80.56;45155.69;5089686;28;20809;-73
2023/03/02 02:14:49;;;;;;;20.70;12.53;;;;;;;-143.84;80.51;45165.22;5089088;28;20532;-73
2023/03/02 02:17:19;;;;;;;15.53;12.00;;;;;;;-143.84;80.50;45125.22;5089230;28;20443;-74
2023/03/02 02:20:12;;;;;;;16.60;12.87;;;;;;;-143.84;80.33;45176.66;5089466;28;20446;-73
2023/03/02 02:22:53;;;;;;;17.43;12.97;;;;;;;-143.84;80.16;45174.75;5089795;28;20444;-73
2023/03/02 02:25:36;;;;;;;16.80;12.20;;;;;;;-143.84;80.06;45170.94;5089334;28;20476;-73
2023/03/02 02:28:11;;;;;;;20.87;14.10;;;;;;;-143.84;79.77;45157.59;5090007;28;20851;-73
2023/03/02 02:30:39;;;;;;;18.00;14.20;;;;;;;-143.84;79.77;45150.00;5089482;28;20500;-73
2023/03/02 02:33:10;;;;;;;18.60;14.50;;;;;;;-143.84;79.54;45178.56;5090085;28;20440;-73
2023/03/02 02:35:39;;;;;;;20.77;13.80;;;;;;;-143.84;79.66;45150.00;5089310;28;20455;-74
2023/03/02 02:38:08;;;;;;;17.80;13.03;;;;;;;-143.84;79.46;45180.47;5088625;28;20937;-73
2023/03/02 02:40:46;;;;;;;21.57;13.97;;;;;;;-143.84;79.42;45191.88;5089331;28;20448;-73
2023/03/02 02:43:18;;;;;;;20.77;14.17;;;;;;;-143.84;79.48;45165.22;5089453;28;20446;-73
2023/03/02 02:45:48;;;;;;;19.80;14.20;;;;;;;-143.84;79.56;45157.59;5089143;28;20479;-73
2023/03/02 02:48:18;;;;;;;21.63;14.60;;;;;;;-143.84;79.75;45132.84;5089008;28;20495;-74
2023/03/02 02:50:47;;;;;;;18.57;13.97;;;;;;;-143.84;79.84;45132.84;5089356;28;20975;-74
2023/03/02 02:53:18;;;;;;;20.67;14.73;;;;;;;-143.84;79.70;45169.03;5088907;28;20447;-73
2023/03/02 02:55:47;;;;;;;19.30;13.80;;;;;;;-143.84;79.31;45159.50;5088915;28;20452;-73
2023/03/02 02:58:26;;;;;;;20.33;14.57;;;;;;;-143.84;79.29;45167.13;5088953;28;20501;-73
2023/03/02 03:00:53;;;;;;;21.97;14.63;;;;;;;-143.84;79.51;45146.19;5088708;28;20855;-73
2023/03/02 03:03:29;;;;;;;21.07;14.87;;;;;;;-143.84;78.94;45205.22;5089036;28;20436;-73
2023/03/02 03:05:58;;;;;;;22.97;15.40;;;;;;;-143.84;78.87;45161.41;5088985;28;20479;-73
2023/03/02 03:08:53;;;;;;;24.83;16.37;;;;;;;-143.84;78.51;45182.38;5089055;28;20976;-73
2023/03/02 03:11:23;;;;;;;24.33;15.67;;;;;;;-143.84;78.64;45169.03;5088983;28;20474;-73
2023/03/02 03:13:57;;;;;;;27.00;15.67;;;;;;;-143.84;78.20;45212.84;5089332;28;20932;-73
2023/03/02 03:16:28;;;;;;;24.70;16.97;;;;;;;-143.84;78.21;45180.47;5088871;28;20447;-73
2023/03/02 03:18:57;;;;;;;25.53;16.60;;;;;;;-143.84;78.01;45163.31;5088894;28;20529;-73
2023/03/02 03:21:24;;;;;;;30.63;17.80;;;;;;;-143.84;77.84;45188.06;5088726;28;20459;-73
2023/03/02 03:23:52;;;;;;;24.17;16.17;;;;;;;-143.84;78.07;45176.66;5088134;28;20436;-73
2023/03/02 03:26:20;;;;;;;24.63;16.63;;;;;;;-143.84;77.94;45207.13;5088096;28;20578;-73
2023/03/02 03:28:47;;;;;;;28.67;15.40;;;;;;;-143.84;78.11;45176.66;5088788;28;20436;-73
2023/03/02 03:31:15;;;;;;;22.27;16.10;;;;;;;-143.84;77.83;45186.16;5088753;28;20439;-73
2023/03/02 03:33:43;;;;;;;24.87;14.90;;;;;;;-143.84;77.94;45176.66;5088742;28;20501;-73
2023/03/02 03:36:10;;;;;;;31.57;17.40;;;;;;;-143.84;77.72;45186.16;5088896;28;20436;-73
2023/03/02 03:38:37;;;;;;;27.50;16.50;;;;;;;-143.84;77.86;45186.16;5088777;28;20436;-73
2023/03/02 03:41:04;;;;;;;25.30;18.00;;;;;;;-143.84;77.87;45195.69;5088785;28;20451;-73
2023/03/02 03:43:31;;;;;;;27.33;17.03;;;;;;;-143.84;77.29;45174.75;5088718;28;20463;-73
2023/03/02 03:45:59;;;;;;;23.93;17.23;;;;;;;-143.84;77.74;45189.97;5087727;28;20475;-73
2023/03/02 03:48:27;;;;;;;25.60;17.10;;;;;;;-143.84;77.29;45210.94;5087789;28;20536;-73
2023/03/02 03:50:54;;;;;;;29.53;17.03;;;;;;;-143.84;77.19;45169.03;5088759;28;20953;-73
2023/03/02 03:53:22;;;;;;;25.47;17.17;;;;;;;-143.84;77.77;45174.75;5088885;28;20443;-73
2023/03/02 03:55:49;;;;;;;27.83;17.70;;;;;;;-143.84;77.61;45170.94;5088693;28;20497;-73
2023/03/02 03:58:16;;;;;;;26.20;16.90;;;;;;;-143.84;77.15;45203.31;5088765;28;20461;-73
2023/03/02 04:00:46;;;;;;;25.30;16.10;;;;;;;-143.84;77.34;45184.25;5088731;28;20443;-73
2023/03/02 04:03:13;;;;;;;30.10;18.07;;;;;;;-143.84;77.51;45170.94;5089806;28;20820;-73
2023/03/02 04:05:42;;;;;;;27.47;16.87;;;;;;;-143.84;77.61;45169.03;5092007;28;20483;-73
2023/03/02 04:08:09;;;;;;;24.53;15.90;;;;;;;-143.84;77.63;45170.94;5091943;28;20447;-73
2023/03/02 04:10:37;;;;;;;21.87;15.60;;;;;;;-143.84;78.08;45188.06;5091885;28;20435;-73
2023/03/02 04:13:04;;;;;;;22.90;16.40;;;;;;;-143.84;78.13;45191.88;5092133;28;20447;-73
2023/03/02 04:15:31;;;;;;;24.50;16.63;;;;;;;-143.84;78.21;45197.59;5091952;28;20447;-73
2023/03/02 04:17:58;;;;;;;29.57;15.80;;;;;;;-143.84;78.15;45174.75;5092047;28;20485;-73
2023/03/02 04:20:27;;;;;;;23.10;17.10;;;;;;;-143.84;78.30;45172.84;5092234;28;20440;-75
2023/03/02 04:22:57;;;;;;;25.83;16.87;;;;;;;-143.84;77.68;45188.06;5092241;28;20436;-73
2023/03/02 04:25:27;;;;;;;28.10;16.93;;;;;;;-143.84;77.81;45172.84;5091972;28;20525;-74
2023/03/02 04:27:55;;;;;;;24.47;16.97;;;;;;;-143.84;78.48;45180.47;5092478;28;20966;-74
2023/03/02 04:30:24;;;;;;;23.43;15.87;;;;;;;-143.84;77.88;45189.97;5092176;28;20444;-74
2023/03/02 04:32:52;;;;;;;24.77;16.43;;;;;;;-143.84;77.74;45191.88;5091261;28;20459;-74
2023/03/02 04:35:19;;;;;;;26.17;15.90;;;;;;;-143.84;77.51;45180.47;5091827;28;20440;-75
2023/03/02 04:37:46;;;;;;;23.73;15.80;;;;;;;-143.84;77.49;45178.56;5092016;28;20467;-75
2023/03/02 04:40:17;;;;;;;22.83;15.70;;;;;;;-143.84;77.35;45155.69;5092061;28;20447;-75
2023/03/02 04:42:44;;;;;;;25.97;16.40;;;;;;;-143.84;77.16;45189.97;5093541;28;21326;-75
2023/03/02 04:45:13;;;;;;;23.90;16.63;;;;;;;-143.84;77.02;45186.16;5090675;28;20574;-75
2023/03/02 04:47:42;;;;;;;23.80;16.80;;;;;;;-143.84;76.99;45169.03;5090549;28;20847;-75
2023/03/02 04:50:11;;;;;;;26.07;16.10;;;;;;;-143.84;76.40;45184.25;5091711;28;20447;-75
2023/03/02 04:52:39;;;;;;;30.50;18.10;;;;;;;-143.84;76.52;45174.75;5090689;28;20442;-75
2023/03/02 04:55:07;;;;;;;29.20;17.43;;;;;;;-143.84;76.34;45186.16;5090861;28;20440;-75
2023/03/02 04:57:35;;;;;;;24.70;17.30;;;;;;;-143.84;75.85;45174.75;5091089;28;20440;-74
2023/03/02 05:00:06;;;;;;;23.17;15.17;;;;;;;-143.84;75.95;45167.13;5091510;28;20453;-74
2023/03/02 05:02:35;;;;;;;20.90;16.00;;;;;;;-143.84;76.00;45220.44;5091316;28;20444;-74
2023/03/02 05:05:03;;;;;;;33.73;16.40;;;;;;;-143.84;75.68;45188.06;5091197;28;20443;-74
2023/03/02 05:07:31;;;;;;;28.70;16.33;;;;;;;-143.84;75.31;45209.03;5091016;28;20934;-74
2023/03/02 05:09:58;;;;;;;25.83;17.40;;;;;;;-143.84;75.09;45176.66;5091112;28;20447;-74
2023/03/02 05:12:25;;;;;;;24.03;16.80;;;;;;;-143.84;75.43;45205.22;5091118;28;20432;-74
2023/03/02 05:14:54;;;;;;;25.10;15.93;;;;;;;-143.84;75.52;45201.41;5090454;28;20494;-74
2023/03/02 05:17:21;;;;;;;26.93;16.30;;;;;;;-143.84;75.72;45191.88;5090545;28;20513;-74
2023/03/02 05:19:48;;;;;;;27.47;16.70;;;;;;;-143.84;75.18;45224.25;5090035;28;20964;-74
2023/03/02 05:22:15;;;;;;;23.07;15.73;;;;;;;-143.84;75.74;45203.31;5091006;28;20440;-74
2023/03/02 05:24:43;;;;;;;24.53;16.97;;;;;;;-143.84;75.26;45224.25;5090785;28;20440;-74
2023/03/02 05:27:10;;;;;;;23.30;16.33;;;;;;;-143.84;76.00;45191.88;5091130;28;20480;-75
2023/03/02 05:29:37;;;;;;;30.10;17.67;;;;;;;-143.84;76.17;45150.00;5090777;28;20517;-75
2023/03/02 05:32:05;;;;;;;26.17;17.40;;;;;;;-143.84;76.57;45170.94;5091008;28;20913;-75
2023/03/02 05:34:33;;;;;;;27.90;17.00;;;;;;;-143.84;76.69;45184.25;5090781;28;20444;-75
2023/03/02 05:37:00;;;;;;;29.30;18.63;;;;;;;-143.84;76.74;45201.41;5091097;28;20782;-75
2023/03/02 05:39:27;;;;;;;25.60;16.77;;;;;;;-143.84;77.10;45210.94;5081641;28;20440;-75
2023/03/02 05:41:54;;;;;;;26.43;17.10;;;;;;;-143.84;76.96;45178.56;5078349;28;20443;-75
2023/03/02 05:44:21;;;;;;;29.20;17.70;;;;;;;-143.84;76.67;45210.94;5069889;28;20439;-75
2023/03/02 05:46:48;;;;;;;21.00;15.77;;;;;;;-143.84;77.11;45195.69;5090590;28;20479;-74
2023/03/02 05:49:17;;;;;;;25.87;17.37;;;;;;;-143.84;77.07;45178.56;5089939;28;20573;-75
2023/03/02 05:51:44;;;;;;;27.53;17.67;;;;;;;-143.84;77.49;45146.19;5090489;28;20489;-75
2023/03/02 05:54:11;;;;;;;29.43;18.33;;;;;;;-143.84;76.94;45201.41;5090129;28;20442;-75
2023/03/02 05:56:38;;;;;;;29.90;18.50;;;;;;;-143.84;77.16;45184.25;5090495;28;20444;-75
2023/03/02 05:59:05;;;;;;;25.47;18.20;;;;;;;-143.84;77.65;45188.06;5090377;28;20440;-75
2023/03/02 06:01:33;;;;;;;30.33;18.60;;;;;;;-143.84;78.09;45170.94;5090254;28;20443;-75
2023/03/02 06:04:01;;;;;;;37.20;19.33;;;;;;;-143.84;77.63;45188.06;5089398;28;20444;-75
2023/03/02 06:06:29;;;;;;;29.07;19.07;;;;;;;-143.84;78.17;45220.44;5089877;28;20532;-75
2023/03/02 06:08:56;;;;;;;32.53;18.73;;;;;;;-143.84;77.76;45170.94;5090183;28;20459;-75
2023/03/02 06:11:23;;;;;;;27.47;18.87;;;;;;;-143.84;77.32;45207.13;5090128;28;20501;-75
2023/03/02 06:13:50;;;;;;;25.87;17.67;;;;;;;-143.84;76.66;45169.03;5090127;28;20436;-75
2023/03/02 06:16:18;;;;;;;31.27;20.30;;;;;;;-143.84;76.65;45210.94;5089851;28;20451;-75
2023/03/02 06:18:45;;;;;;;38.03;18.40;;;;;;;-143.84;76.78;45205.22;5089996;28;20504;-75
2023/03/02 06:21:12;;;;;;;31.13;19.00;;;;;;;-143.84;76.51;45170.94;5089684;28;21243;-75
2023/03/02 06:23:41;;;;;;;29.33;19.40;;;;;;;-143.84;76.25;45188.06;5089724;28;20444;-75
2023/03/02 06:26:10;;;;;;;31.00;19.40;;;;;;;-143.84;75.71;45203.31;5089470;28;20480;-75
2023/03/02 06:28:37;;;;;;;35.20;19.77;;;;;;;-143.84;75.27;45224.25;5088629;28;21026;-75
2023/03/02 06:31:05;;;;;;;32.73;20.03;;;;;;;-143.84;75.32;45214.72;5089897;28;20440;-74
2023/03/02 06:33:32;;;;;;;31.23;20.40;;;;;;;-143.84;75.04;45184.25;5089563;28;20444;-75
2023/03/02 06:35:59;;;;;;;35.07;21.57;;;;;;;-143.84;75.25;45209.03;5089800;28;20440;-75
2023/03/02 06:38:26;;;;;;;37.30;20.17;;;;;;;-143.84;74.62;45167.13;5089554;28;20443;-74
2023/03/02 06:40:55;;;;;;;33.17;21.03;;;;;;;-143.84;74.56;45203.31;5089566;28;21006;-74
2023/03/02 06:43:22;;;;;;;36.37;21.37;;;;;;;-143.84;75.09;45188.06;5089467;28;20436;-74
2023/03/02 06:45:49;;;;;;;33.33;22.50;;;;;;;-143.84;74.38;45199.50;5089278;28;20475;-75
2023/03/02 06:48:17;;;;;;;33.97;23.17;;;;;;;-143.84;73.82;45212.84;5088995;28;20498;-75
2023/03/02 06:50:44;;;;;;;31.00;22.37;;;;;;;-143.84;73.81;45201.41;5088693;28;20485;-75
2023/03/02 06:53:11;;;;;;;33.80;20.87;;;;;;;-143.84;73.62;45189.97;5088932;28;20508;-75
2023/03/02 06:55:38;;;;;;;35.97;22.37;;;;;;;-143.84;73.52;45199.50;5089263;28;20444;-75
2023/03/02 06:58:11;;;;;;;38.40;23.33;;;;;;;-143.84;72.76;45239.50;5089144;28;20444;-75
2023/03/02 07:00:39;;;;;;;42.00;24.37;;;;;;;-143.84;72.28;45216.63;5089261;28;20469;-74
2023/03/02 07:03:06;;;;;;;42.80;24.90;;;;;;;-143.84;72.71;45193.78;5089000;28;20440;-74
2023/03/02 07:05:34;;;;;;;36.97;23.10;;;;;;;-143.84;71.68;45205.22;5088995;28;20447;-74
2023/03/02 07:08:02;;;;;;;36.17;23.67;;;;;;;-143.84;71.53;45201.41;5089051;28;20490;-74
2023/03/02 07:10:29;;;;;;;39.33;22.33;;;;;;;-143.84;71.53;45178.56;5089196;28;20444;-74
2023/03/02 07:12:56;;;;;;;38.73;24.13;;;;;;;-143.84;71.54;45209.03;5089027;28;20876;-75
2023/03/02 07:15:25;;;;;;;36.97;22.77;;;;;;;-143.84;71.94;45178.56;5088631;28;20444;-74
2023/03/02 07:17:52;;;;;;;34.47;23.43;;;;;;;-143.84;72.51;45184.25;5088972;28;20483;-75
2023/03/02 07:20:19;;;;;;;35.80;22.93;;;;;;;-143.84;72.50;45180.47;5089033;28;20942;-74
2023/03/02 07:22:47;;;;;;;36.33;23.97;;;;;;;-143.84;73.21;45188.06;5089044;28;20440;-75
2023/03/02 07:25:14;;;;;;;31.50;21.77;;;;;;;-143.84;72.16;45197.59;5088867;28;20444;-75
2023/03/02 07:27:41;;;;;;;32.17;21.73;;;;;;;-143.84;71.86;45201.41;5088964;28;20488;-75
2023/03/02 07:30:10;;;;;;;39.23;23.70;;;;;;;-143.84;71.79;45193.78;5088624;28;20534;-75
2023/03/02 07:32:38;;;;;;;36.03;23.20;;;;;;;-143.84;71.45;45163.31;5088915;28;20443;-75
2023/03/02 07:35:06;;;;;;;40.40;22.63;;;;;;;-143.84;71.32;45199.50;5088996;28;20969;-74
2023/03/02 07:37:33;;;;;;;36.97;23.27;;;;;;;-143.84;71.54;45189.97;5088394;28;20481;-74
2023/03/02 07:40:01;;;;;;;34.13;24.03;;;;;;;-143.84;71.79;45178.56;5092492;28;20462;-74
2023/03/02 07:42:28;;;;;;;34.57;23.00;;;;;;;-143.84;71.88;45197.59;5092668;28;20497;-75
2023/03/02 07:44:55;;;;;;;35.63;22.90;;;;;;;-143.84;72.39;45189.97;5092591;28;21126;-75
2023/03/02 07:47:22;;;;;;;31.07;21.77;;;;;;;-143.84;71.77;45186.16;5092459;28;20487;-74
2023/03/02 07:49:51;;;;;;;36.87;23.30;;;;;;;-143.84;72.08;45184.25;5092809;28;20435;-74
2023/03/02 07:52:18;;;;;;;43.30;24.90;;;;;;;-143.84;70.95;45205.22;5092461;28;20436;-74
2023/03/02 07:54:45;;;;;;;39.50;25.63;;;;;;;-143.84;70.79;45189.97;5092502;28;20458;-73
2023/03/02 07:57:15;;;;;;;32.57;22.13;;;;;;;-143.84;70.47;45188.06;5092758;28;20459;-73
2023/03/02 07:59:42;;;;;;;39.20;23.67;;;;;;;-143.84;70.32;45207.13;5092297;28;20476;-73
2023/03/02 08:02:12;;;;;;;34.40;20.87;;;;;;;-143.84;70.26;45178.56;5091841;28;20524;-73
2023/03/02 08:04:39;;;;;;;29.07;21.40;;;;;;;-143.84;69.98;45180.47;5092209;28;20531;-73
2023/03/02 08:07:08;;;;;;;45.60;24.40;;;;;;;-143.84;70.06;45165.22;5092419;28;20476;-73
2023/03/02 08:09:35;;;;;;;35.23;22.40;;;;;;;-143.84;69.85;45167.13;5092456;28;20448;-73
2023/03/02 08:12:02;;;;;;;33.07;22.03;;;;;;;-143.84;70.39;45165.22;5092329;28;20452;-73
2023/03/02 08:14:29;;;;;;;35.60;23.00;;;;;;;-143.84;69.66;45176.66;5092167;28;20445;-73
2023/03/02 08:16:56;;;;;;;34.93;22.13;;;;;;;-143.84;70.76;45174.75;5092446;28;20537;-73
2023/03/02 08:19:25;;;;;;;33.60;22.57;;;;;;;-143.84;70.46;45180.47;5092149;28;20445;-73
2023/03/02 08:21:52;;;;;;;36.53;22.70;;;;;;;-143.84;69.54;45188.06;5091968;28;20503;-73
2023/03/02 08:24:21;;;;;;;37.40;23.53;;;;;;;-143.84;69.68;45186.16;5091604;28;20496;-73
2023/03/02 08:26:48;;;;;;;35.47;23.10;;;;;;;-143.84;68.32;45193.78;5091201;28;20476;-73
2023/03/02 08:29:15;;;;;;;34.63;22.53;;;;;;;-143.84;68.70;45161.41;5091919;28;20432;-73
2023/03/02 08:31:42;;;;;;;33.90;20.77;;;;;;;-143.84;69.09;45191.88;5091996;28;20864;-73
2023/03/02 08:34:09;;;;;;;34.47;21.07;;;;;;;-143.84;68.47;45191.88;5091534;28;20440;-73
2023/03/02 08:36:36;;;;;;;31.43;19.90;;;;;;;-143.84;68.86;45203.31;5091742;28;20448;-73
2023/03/02 08:39:03;;;;;;;33.07;19.93;;;;;;;-143.84;69.15;45167.13;5091810;28;20502;-73
2023/03/02 08:41:33;;;;;;;34.07;21.60;;;;;;;-143.84;70.12;45170.94;5091855;28;20813;-73
2023/03/02 08:44:00;;;;;;;40.13;21.30;;;;;;;-143.84;69.92;45191.88;5091502;28;20507;-73
2023/03/02 08:46:28;;;;;;;31.10;20.40;;;;;;;-143.84;70.06;45188.06;5091541;28;20541;-73
2023/03/02 08:48:55;;;;;;;33.83;20.60;;;;;;;-143.84;70.66;45205.22;5090989;28;20492;-73
2023/03/02 08:51:24;;;;;;;34.97;20.20;;;;;;;-143.84;70.61;45167.13;5090032;28;20444;-73
2023/03/02 08:53:53;;;;;;;34.07;21.60;;;;;;;-143.84;70.43;45176.66;5091406;28;20436;-73
2023/03/02 08:56:23;;;;;;;34.03;22.63;;;;;;;-143.84;70.85;45209.03;5091500;28;20444;-73
2023/03/02 08:58:53;;;;;;;34.07;22.53;;;;;;;-143.84;70.31;45174.75;5091420;28;20441;-74
2023/03/02 09:01:22;;;;;;;36.60;22.47;;;;;;;-143.84;70.12;45191.88;5090818;28;20818;-74
2023/03/02 09:03:50;;;;;;;34.50;21.60;;;;;;;-143.84;69.54;45189.97;5090470;28;21128;-73
2023/03/02 09:06:17;;;;;;;26.33;19.33;;;;;;;-143.84;68.56;45186.16;5090818;28;20436;-73
2023/03/02 09:08:45;;;;;;;31.00;19.37;;;;;;;-143.84;69.03;45203.31;5090942;28;20446;-73
2023/03/02 09:11:12;;;;;;;34.30;19.40;;;;;;;-143.84;68.85;45159.50;5090162;28;20444;-73
2023/03/02 09:13:39;;;;;;;29.20;18.80;;;;;;;-143.84;68.38;45180.47;5090592;28;20437;-73
2023/03/02 09:16:09;;;;;;;23.30;17.30;;;;;;;-143.84;68.21;45189.97;5090603;28;20494;-73
2023/03/02 09:18:36;;;;;;;31.33;18.67;;;;;;;-143.84;68.31;45186.16;5091223;28;20445;-74
2023/03/02 09:21:04;;;;;;;28.63;19.53;;;;;;;-143.84;67.16;45199.50;5091058;28;20442;-73
2023/03/02 09:23:34;;;;;;;30.87;17.37;;;;;;;-143.84;65.57;45174.75;5090727;28;20491;-73
2023/03/02 09:26:01;;;;;;;32.20;18.93;;;;;;;-143.84;64.88;45178.56;5090584;28;20961;-73
2023/03/02 09:28:28;;;;;;;46.07;23.77;;;;;;;-143.84;65.48;45203.31;5090788;28;20529;-73
2023/03/02 09:30:58;;;;;;;31.50;17.60;;;;;;;-143.84;64.40;45174.75;5090743;28;20497;-73
2023/03/02 09:33:27;;;;;;;32.53;19.70;;;;;;;-143.84;62.77;45180.47;5090628;28;21191;-73
2023/03/02 09:35:54;;;;;;;23.90;15.93;;;;;;;-143.84;61.77;45170.94;5090481;28;20776;-73
2023/03/02 09:38:22;;;;;;;35.67;17.93;;;;;;;-143.84;61.44;45188.06;5090084;28;20440;-73
2023/03/02 09:41:12;;;;;;;23.70;16.90;;;;;;;-143.84;60.04;45199.50;5090152;28;20448;-73
2023/03/02 09:43:49;;;;;;;27.70;16.50;;;;;;;-143.84;59.72;45197.59;5090340;28;20444;-73
2023/03/02 09:46:20;;;;;;;26.10;18.00;;;;;;;-143.84;60.52;45163.31;5090493;28;20442;-73
2023/03/02 09:49:00;;;;;;;32.20;17.70;;;;;;;-143.84;59.79;45157.59;5090106;28;20563;-73
2023/03/02 09:51:36;;;;;;;29.83;18.00;;;;;;;-143.84;60.35;45136.66;5090285;28;20438;-73
2023/03/02 09:54:10;;;;;;;29.00;17.30;;;;;;;-143.84;59.61;45197.59;5090243;28;20500;-73
2023/03/02 09:56:42;;;;;;;23.73;17.20;;;;;;;-143.84;59.23;45169.03;5090134;28;20960;-73
2023/03/02 09:59:21;;;;;;;41.27;18.17;;;;;;;-143.84;58.55;45159.50;5089940;28;20473;-73
2023/03/02 10:01:52;;;;;;;20.90;15.87;;;;;;;-143.84;58.89;45188.06;5089118;28;20579;-73
2023/03/02 10:04:25;;;;;;;22.80;16.50;;;;;;;-143.84;57.87;45193.78;5089107;28;20989;-74
2023/03/02 10:06:57;;;;;;;24.43;16.20;;;;;;;-143.84;58.10;45161.41;5089325;28;20536;-73
2023/03/02 10:09:24;;;;;;;25.37;16.90;;;;;;;-143.84;58.02;45159.50;5090000;28;21188;-73
2023/03/02 10:12:08;;;;;;;26.90;19.40;;;;;;;-143.84;58.30;45150.00;5089637;28;20446;-72
2023/03/02 10:14:42;;;;;;;27.10;18.20;;;;;;;-143.84;57.02;45184.25;5089686;28;20492;-73
2023/03/02 10:17:27;;;;;;;28.77;19.07;;;;;;;-143.84;57.95;45207.13;5089726;28;20512;-72
2023/03/02 10:20:03;;;;;;;31.53;18.50;;;;;;;-143.84;57.43;45174.75;5089961;28;20493;-73
2023/03/02 10:22:34;;;;;;;36.50;20.47;;;;;;;-143.84;58.42;45178.56;5089573;28;20447;-73
2023/03/02 10:25:17;;;;;;;26.00;18.93;;;;;;;-143.84;58.13;45161.41;5089037;28;20454;-74
2023/03/02 10:27:50;;;;;;;27.17;18.30;;;;;;;-143.84;58.10;45167.13;5088489;28;20486;-73
2023/03/02 10:30:26;;;;;;;23.70;17.57;;;;;;;-143.84;55.60;45176.66;5089608;28;20497;-73
2023/03/02 10:32:58;;;;;;;27.53;18.23;;;;;;;-143.84;55.95;45148.09;5089632;28;20519;-73
2023/03/02 10:35:29;;;;;;;24.70;16.93;;;;;;;-143.84;55.09;45144.28;5089011;28;20468;-73
2023/03/02 10:38:00;;;;;;;25.70;17.40;;;;;;;-143.84;54.81;45169.03;5089303;28;20447;-73
2023/03/02 10:40:39;;;;;;;26.33;16.57;;;;;;;-143.84;53.08;45140.47;5089356;28;20447;-72
2023/03/02 10:43:11;;;;;;;26.63;18.03;;;;;;;-143.84;51.89;45161.41;5089354;28;20953;-73
2023/03/02 10:45:38;;;;;;;24.90;16.10;;;;;;;-143.84;51.62;45148.09;5089451;28;20512;-73
2023/03/02 10:48:07;;;;;;;26.90;16.80;;;;;;;-143.84;51.79;45178.56;5089102;28;20589;-73
2023/03/02 10:50:37;;;;;;;40.07;20.10;;;;;;;-143.84;51.44;45146.19;5089450;28;21364;-73
2023/03/02 10:53:07;;;;;;;33.37;17.43;;;;;;;-143.84;51.65;45188.06;5089256;28;20447;-73
2023/03/02 10:55:34;;;;;;;33.03;18.87;;;;;;;-143.84;52.75;45159.50;5089356;28;20447;-73
2023/03/02 10:58:04;;;;;;;28.33;17.80;;;;;;;-143.84;54.05;45170.94;5089391;28;20990;-73
2023/03/02 11:00:32;;;;;;;31.10;16.00;;;;;;;-143.84;51.44;45151.91;5088774;28;20440;-73
2023/03/02 11:03:01;;;;;;;21.63;15.73;;;;;;;-143.84;51.37;45148.09;5088552;28;20448;-73
2023/03/02 11:05:31;;;;;;;25.17;15.00;;;;;;;-143.84;50.74;45180.47;5088826;28;20449;-73
2023/03/02 11:08:01;;;;;;;27.90;15.27;;;;;;;-143.84;49.88;45180.47;5088217;28;20486;-73
2023/03/02 11:10:31;;;;;;;23.73;16.63;;;;;;;-143.84;51.08;45157.59;5089152;28;20448;-73